createdAt,value
2022-12-27T00:01:20.254Z,7.10
2022-12-27T00:04:22.752Z,7.10
2022-12-27T00:07:27.686Z,7.10
2022-12-27T00:10:33.379Z,7.10
2022-12-27T00:13:33.776Z,7.00
2022-12-27T00:16:29.019Z,6.80
2022-12-27T00:19:25.820Z,6.70
2022-12-27T00:22:22.800Z,6.60
2022-12-27T00:25:28.011Z,6.60
2022-12-27T00:28:24.549Z,6.60
2022-12-27T00:31:33.211Z,6.50
2022-12-27T00:34:36.568Z,6.60
2022-12-27T00:37:41.828Z,6.60
2022-12-27T00:40:48.079Z,6.60
2022-12-27T00:43:48.507Z,6.50
2022-12-27T00:46:42.795Z,6.30
2022-12-27T00:49:46.603Z,6.20
2022-12-27T00:52:46.420Z,6.20
2022-12-27T00:55:50.745Z,6.10
2022-12-27T00:58:54.962Z,6.00
2022-12-27T01:01:54.044Z,6.00
2022-12-27T01:05:04.108Z,5.90
2022-12-27T01:08:03.341Z,5.70
2022-12-27T01:11:01.991Z,5.70
2022-12-27T01:14:02.838Z,5.70
2022-12-27T01:16:57.577Z,5.70
2022-12-27T01:19:58.064Z,5.60
2022-12-27T01:22:57.159Z,5.50
2022-12-27T01:25:52.893Z,5.50
2022-12-27T01:28:51.466Z,5.40
2022-12-27T01:32:14.229Z,5.40
2022-12-27T01:35:15.549Z,5.40
2022-12-27T01:38:14.360Z,5.40
2022-12-27T01:41:29.228Z,5.30
2022-12-27T01:45:40.035Z,5.30
2022-12-27T01:48:43.092Z,5.30
2022-12-27T01:51:44.342Z,5.20
2022-12-27T01:54:41.506Z,5.10
2022-12-27T01:58:11.212Z,5.20
2022-12-27T02:01:12.288Z,5.20
2022-12-27T02:04:29.166Z,5.10
2022-12-27T02:07:51.410Z,5.00
2022-12-27T02:11:14.371Z,5.00
2022-12-27T02:14:44.692Z,4.90
2022-12-27T02:17:57.215Z,4.90
2022-12-27T02:21:51.509Z,4.80
2022-12-27T02:25:35.460Z,4.80
2022-12-27T02:28:55.309Z,4.80
2022-12-27T02:32:02.739Z,4.80
2022-12-27T02:35:25.504Z,4.80
2022-12-27T02:38:38.314Z,4.80
2022-12-27T02:41:53.575Z,4.80
2022-12-27T02:45:19.091Z,4.80
2022-12-27T02:48:53.519Z,4.80
2022-12-27T02:52:21.616Z,4.70
2022-12-27T02:55:57.149Z,4.80
2022-12-27T02:59:12.581Z,4.70
2022-12-27T03:02:33.480Z,4.80
2022-12-27T03:05:37.654Z,4.80
2022-12-27T03:08:41.790Z,4.70
2022-12-27T03:11:56.189Z,4.70
2022-12-27T03:15:23.144Z,4.70
2022-12-27T03:18:26.066Z,4.70
2022-12-27T03:21:48.460Z,4.80
2022-12-27T03:25:13.174Z,4.80
2022-12-27T03:28:31.231Z,4.80
2022-12-27T03:31:52.158Z,4.70
2022-12-27T03:34:55.149Z,4.70
2022-12-27T03:38:08.581Z,4.60
2022-12-27T03:41:44.138Z,4.60
2022-12-27T03:44:50.219Z,4.70
2022-12-27T03:47:50.931Z,4.60
2022-12-27T03:51:15.144Z,4.60
2022-12-27T03:54:12.588Z,4.50
2022-12-27T03:57:20.078Z,4.40
2022-12-27T04:00:33.002Z,4.30
2022-12-27T04:06:49.944Z,4.30
2022-12-27T04:10:08.886Z,4.20
2022-12-27T04:13:17.229Z,4.20
2022-12-27T04:16:23.615Z,4.20
2022-12-27T04:19:30.073Z,4.10
2022-12-27T04:25:49.911Z,4.10
2022-12-27T04:29:17.414Z,4.10
2022-12-27T04:32:25.152Z,4.20
2022-12-27T04:35:33.776Z,4.10
2022-12-27T04:38:26.893Z,4.10
2022-12-27T04:41:35.265Z,4.10
2022-12-27T04:44:45.420Z,4.00
2022-12-27T04:47:59.824Z,4.00
2022-12-27T04:51:17.149Z,4.10
2022-12-27T04:54:27.465Z,4.00
2022-12-27T04:57:23.006Z,4.00
2022-12-27T05:00:39.287Z,4.00
2022-12-27T05:03:32.086Z,4.10
2022-12-27T05:06:26.123Z,4.10
2022-12-27T05:09:36.591Z,4.10
2022-12-27T05:13:16.034Z,4.00
2022-12-27T05:16:10.349Z,4.00
2022-12-27T05:19:14.443Z,4.00
2022-12-27T05:22:22.363Z,4.00
2022-12-27T05:25:33.266Z,4.00
2022-12-27T05:28:38.273Z,4.00
2022-12-27T05:31:42.967Z,4.00
2022-12-27T05:34:36.978Z,4.00
2022-12-27T05:37:33.005Z,4.00
2022-12-27T05:40:29.239Z,4.00
2022-12-27T05:43:43.392Z,4.00
2022-12-27T05:46:34.000Z,4.00
2022-12-27T05:49:24.293Z,4.00
2022-12-27T05:52:21.771Z,4.00
2022-12-27T05:55:23.498Z,4.00
2022-12-27T05:58:16.559Z,4.00
2022-12-27T06:01:16.927Z,4.00
2022-12-27T06:04:07.790Z,4.00
2022-12-27T06:07:00.132Z,4.00
2022-12-27T06:09:52.976Z,3.90
2022-12-27T06:12:44.910Z,4.00
2022-12-27T06:15:39.507Z,4.00
2022-12-27T06:18:47.752Z,4.00
2022-12-27T06:21:41.796Z,4.10
2022-12-27T06:24:43.699Z,4.00
2022-12-27T06:27:36.709Z,4.10
2022-12-27T06:30:34.353Z,4.00
2022-12-27T06:33:28.724Z,4.00
2022-12-27T06:36:27.301Z,4.00
2022-12-27T06:39:19.034Z,4.00
2022-12-27T06:42:08.919Z,4.00
2022-12-27T06:45:00.688Z,4.00
2022-12-27T06:47:56.197Z,4.00
2022-12-27T06:50:46.657Z,4.00
2022-12-27T06:53:42.192Z,4.00
2022-12-27T06:56:40.761Z,4.00
2022-12-27T06:59:40.375Z,4.10
2022-12-27T07:02:34.411Z,4.00
2022-12-27T07:05:27.928Z,4.10
2022-12-27T07:08:34.012Z,4.10
2022-12-27T07:11:48.144Z,4.00
2022-12-27T07:14:47.142Z,4.00
2022-12-27T07:17:41.022Z,4.00
2022-12-27T07:20:33.087Z,4.10
2022-12-27T07:23:32.874Z,4.20
2022-12-27T07:26:40.371Z,4.20
2022-12-27T07:29:45.308Z,4.40
2022-12-27T07:32:38.779Z,4.60
2022-12-27T07:35:31.521Z,4.70
2022-12-27T07:38:23.051Z,4.80
2022-12-27T07:41:24.159Z,4.80
2022-12-27T07:44:17.622Z,4.80
2022-12-27T07:47:28.803Z,4.70
2022-12-27T07:50:26.058Z,4.80
2022-12-27T07:53:20.166Z,4.60
2022-12-27T07:56:20.211Z,4.60
2022-12-27T07:59:21.302Z,4.60
2022-12-27T08:02:16.916Z,4.70
2022-12-27T08:05:27.789Z,4.70
2022-12-27T08:08:39.972Z,4.80
2022-12-27T08:11:35.278Z,5.00
2022-12-27T08:14:46.876Z,5.20
2022-12-27T08:17:37.066Z,5.30
2022-12-27T08:20:33.861Z,5.50
2022-12-27T08:23:27.703Z,5.50
2022-12-27T08:26:18.507Z,5.70
2022-12-27T08:29:06.841Z,5.70
2022-12-27T08:31:59.703Z,5.90
2022-12-27T08:34:48.453Z,6.00
2022-12-27T08:37:41.514Z,6.10
2022-12-27T08:40:38.743Z,6.20
2022-12-27T08:43:30.939Z,6.30
2022-12-27T08:46:19.887Z,6.40
2022-12-27T08:49:22.869Z,6.40
2022-12-27T08:52:15.922Z,6.50
2022-12-27T08:55:10.318Z,6.60
2022-12-27T09:01:21.618Z,6.70
2022-12-27T09:04:18.588Z,6.80
2022-12-27T09:07:16.313Z,6.90
2022-12-27T09:10:11.714Z,6.90
2022-12-27T09:13:04.475Z,7.00
2022-12-27T09:16:01.478Z,7.00
2022-12-27T09:18:58.160Z,7.10
2022-12-27T09:21:57.272Z,7.30
2022-12-27T09:24:53.015Z,7.30
2022-12-27T09:27:59.385Z,7.30
2022-12-27T09:30:57.340Z,7.40
2022-12-27T09:33:53.355Z,7.40
2022-12-27T09:40:35.650Z,7.50
2022-12-27T09:43:47.368Z,7.90
2022-12-27T09:46:55.722Z,8.10
2022-12-27T09:50:06.489Z,8.20
2022-12-27T09:53:27.965Z,8.20
2022-12-27T09:59:55.560Z,8.10
2022-12-27T10:03:10.766Z,8.10
2022-12-27T10:06:30.221Z,8.20
2022-12-27T10:09:43.234Z,8.20
2022-12-27T10:12:54.728Z,8.20
2022-12-27T10:15:56.344Z,8.10
2022-12-27T10:19:23.128Z,8.10
2022-12-27T10:22:39.052Z,8.10
2022-12-27T10:26:05.013Z,8.00
2022-12-27T10:29:08.489Z,8.00
2022-12-27T10:32:27.808Z,8.00
2022-12-27T10:35:36.581Z,7.90
2022-12-27T10:38:35.994Z,7.90
2022-12-27T10:41:42.558Z,7.80
2022-12-27T10:44:36.329Z,7.60
2022-12-27T10:47:50.534Z,7.60
2022-12-27T10:50:57.116Z,7.60
2022-12-27T10:54:07.484Z,7.60
2022-12-27T10:57:20.746Z,7.50
2022-12-27T11:00:32.292Z,7.40
2022-12-27T11:03:37.783Z,7.50
2022-12-27T11:06:37.804Z,7.50
2022-12-27T11:09:38.137Z,7.50
2022-12-27T11:12:33.298Z,7.50
2022-12-27T11:15:42.506Z,7.60
2022-12-27T11:18:37.490Z,7.50
2022-12-27T11:21:29.360Z,7.50
2022-12-27T11:24:38.128Z,7.50
2022-12-27T11:27:43.143Z,7.40
2022-12-27T11:30:36.898Z,7.50
2022-12-27T11:37:01.409Z,7.40
2022-12-27T11:40:36.345Z,7.30
2022-12-27T11:43:33.804Z,7.30
2022-12-27T11:46:42.439Z,7.30
2022-12-27T11:49:40.747Z,7.50
2022-12-27T11:53:12.780Z,7.50
2022-12-27T11:56:22.939Z,7.40
2022-12-27T11:59:38.332Z,7.40
2022-12-27T12:03:14.719Z,7.40
2022-12-27T12:06:34.574Z,7.40
2022-12-27T12:10:12.079Z,7.40
2022-12-27T12:14:01.968Z,7.40
2022-12-27T12:18:02.611Z,7.20
2022-12-27T12:21:34.923Z,7.10
2022-12-27T12:25:02.246Z,7.00
2022-12-27T12:28:55.876Z,6.90
2022-12-27T12:32:06.681Z,7.10
2022-12-27T12:35:25.860Z,7.10
2022-12-27T12:39:00.376Z,7.00
2022-12-27T12:42:22.836Z,7.10
2022-12-27T12:45:42.033Z,6.90
2022-12-27T12:49:12.422Z,6.90
2022-12-27T12:52:34.795Z,6.80
2022-12-27T12:55:40.524Z,6.70
2022-12-27T12:59:08.637Z,6.60
2022-12-27T13:02:34.505Z,6.60
2022-12-27T13:07:40.169Z,6.70
2022-12-27T13:10:14.146Z,6.70
2022-12-27T13:22:10.006Z,7.50
2022-12-27T13:29:51.077Z,7.50
2022-12-27T13:33:33.740Z,7.40
2022-12-27T13:37:44.108Z,7.30
2022-12-27T13:41:41.476Z,7.50
2022-12-27T13:46:20.371Z,7.40
2022-12-27T13:50:16.703Z,7.30
2022-12-27T13:53:39.453Z,7.30
2022-12-27T13:56:53.849Z,7.30
2022-12-27T14:00:23.242Z,7.30
2022-12-27T14:03:50.175Z,7.50
2022-12-27T14:07:26.963Z,7.60
2022-12-27T14:10:35.791Z,7.50
2022-12-27T14:13:41.170Z,7.60
2022-12-27T14:16:59.228Z,7.60
2022-12-27T14:20:31.661Z,7.50
2022-12-27T14:23:45.851Z,7.40
2022-12-27T14:27:16.123Z,7.30
2022-12-27T14:31:01.377Z,7.20
2022-12-27T14:34:40.336Z,7.20
2022-12-27T14:38:02.976Z,7.10
2022-12-27T14:41:33.201Z,7.10
2022-12-27T14:44:56.017Z,7.10
2022-12-27T14:48:10.169Z,7.00
2022-12-27T14:55:25.588Z,6.80
2022-12-27T14:58:44.745Z,6.70
2022-12-27T15:01:54.728Z,6.70
2022-12-27T15:06:07.819Z,6.70
2022-12-27T15:09:16.887Z,6.60
2022-12-27T15:12:25.391Z,6.50
2022-12-27T15:15:33.775Z,6.50
2022-12-27T15:18:50.088Z,6.50
2022-12-27T15:22:15.918Z,6.50
2022-12-27T15:25:28.348Z,6.50
2022-12-27T15:28:30.944Z,6.60
2022-12-27T15:31:46.065Z,6.60
2022-12-27T15:35:10.277Z,6.60
2022-12-27T15:38:18.013Z,6.50
2022-12-27T15:41:35.444Z,6.50
2022-12-27T15:44:57.689Z,6.50
2022-12-27T15:48:23.099Z,6.40
2022-12-27T15:51:30.229Z,6.50
2022-12-27T15:55:01.449Z,6.50
2022-12-27T15:58:13.044Z,6.50
2022-12-27T16:01:28.869Z,6.40
2022-12-27T16:04:52.008Z,6.40
2022-12-27T16:08:01.749Z,6.30
2022-12-27T16:10:59.720Z,6.20
2022-12-27T16:14:27.693Z,6.30
2022-12-27T16:17:41.531Z,6.20
2022-12-27T16:20:42.001Z,6.10
2022-12-27T16:23:38.008Z,6.20
2022-12-27T16:26:33.352Z,6.20
2022-12-27T16:29:29.620Z,6.10
2022-12-27T16:32:31.478Z,6.00
2022-12-27T16:35:24.171Z,6.10
2022-12-27T16:38:27.452Z,6.10
2022-12-27T16:41:36.499Z,6.00
2022-12-27T16:45:27.112Z,6.00
2022-12-27T16:48:29.593Z,6.00
2022-12-27T16:51:35.144Z,6.10
2022-12-27T16:54:33.511Z,6.10
2022-12-27T16:57:46.480Z,6.10
2022-12-27T17:00:49.657Z,6.10
2022-12-27T17:03:53.119Z,6.20
2022-12-27T17:07:05.766Z,6.30
2022-12-27T17:10:05.883Z,6.30
2022-12-27T17:13:21.671Z,6.40
2022-12-27T17:16:43.101Z,6.50
2022-12-27T17:19:41.631Z,6.50
2022-12-27T17:22:59.616Z,6.50
2022-12-27T17:26:04.143Z,6.50
2022-12-27T17:29:11.314Z,6.50
2022-12-27T17:32:11.795Z,6.40
2022-12-27T17:35:13.962Z,6.50
2022-12-27T17:38:19.440Z,6.40
2022-12-27T17:41:19.973Z,6.40
2022-12-27T17:44:40.902Z,6.50
2022-12-27T17:47:54.352Z,6.60
2022-12-27T17:50:54.203Z,6.60
2022-12-27T17:54:13.894Z,6.60
2022-12-27T17:57:23.649Z,6.60
2022-12-27T18:00:26.781Z,6.50
2022-12-27T18:03:25.949Z,6.60
2022-12-27T18:06:26.471Z,6.60
2022-12-27T18:09:30.828Z,6.60
2022-12-27T18:12:30.800Z,6.70
2022-12-27T18:15:25.990Z,6.70
2022-12-27T18:18:35.765Z,6.60
2022-12-27T18:21:32.916Z,6.60
2022-12-27T18:24:32.846Z,6.60
2022-12-27T18:27:32.344Z,6.60
2022-12-27T18:30:27.730Z,6.70
2022-12-27T18:33:34.802Z,6.70
2022-12-27T18:36:41.141Z,6.70
2022-12-27T18:39:41.144Z,6.60
2022-12-27T18:42:44.123Z,6.70
2022-12-27T18:45:56.039Z,6.70
2022-12-27T18:49:02.070Z,6.70
2022-12-27T18:52:12.350Z,6.70
2022-12-27T18:55:19.146Z,6.70
2022-12-27T18:58:20.443Z,6.70
2022-12-27T19:01:39.640Z,6.70
2022-12-27T19:04:57.807Z,6.70
2022-12-27T19:07:46.913Z,6.70
2022-12-27T19:10:43.500Z,6.60
2022-12-27T19:13:58.307Z,6.60
2022-12-27T19:16:58.435Z,6.60
2022-12-27T19:19:54.221Z,6.70
2022-12-27T19:22:44.295Z,6.70
2022-12-27T19:25:32.790Z,6.50
2022-12-27T19:28:27.387Z,6.60
2022-12-27T19:31:21.487Z,6.60
2022-12-27T19:34:14.498Z,6.40
2022-12-27T19:37:00.830Z,6.40
2022-12-27T19:39:49.156Z,6.30
2022-12-27T19:42:35.770Z,6.30
2022-12-27T19:45:22.148Z,6.30
2022-12-27T19:48:09.367Z,6.30
2022-12-27T19:50:57.909Z,6.30
2022-12-27T19:53:55.418Z,6.20
2022-12-27T19:56:44.471Z,6.10
2022-12-27T19:59:30.811Z,6.10
2022-12-27T20:02:18.339Z,6.20
2022-12-27T20:05:04.930Z,6.30
2022-12-27T20:07:53.060Z,6.30
2022-12-27T20:10:39.347Z,6.20
2022-12-27T20:13:26.438Z,6.30
2022-12-27T20:16:16.711Z,6.30
2022-12-27T20:19:03.749Z,6.20
2022-12-27T20:21:50.335Z,6.20
2022-12-27T20:24:38.555Z,6.20
2022-12-27T20:27:24.908Z,6.20
2022-12-27T20:30:12.610Z,6.20
2022-12-27T20:32:59.247Z,6.20
2022-12-27T20:35:45.686Z,6.20
2022-12-27T20:38:32.728Z,6.10
2022-12-27T20:41:22.927Z,6.20
2022-12-27T20:44:09.195Z,6.10
2022-12-27T20:46:55.576Z,6.20
2022-12-27T20:49:42.263Z,6.20
2022-12-27T20:52:31.151Z,6.20
2022-12-27T20:55:18.004Z,6.10
2022-12-27T20:58:06.082Z,6.20
2022-12-27T21:00:52.512Z,6.10
2022-12-27T21:03:40.083Z,6.10
2022-12-27T21:06:27.706Z,6.00
2022-12-27T21:09:14.202Z,6.10
2022-12-27T21:12:01.017Z,6.20
2022-12-27T21:14:49.977Z,6.30
2022-12-27T21:17:37.254Z,6.30
2022-12-27T21:20:23.813Z,6.30
2022-12-27T21:23:10.503Z,6.40
2022-12-27T21:25:56.891Z,6.40
2022-12-27T21:28:43.642Z,6.50
2022-12-27T21:31:31.887Z,6.40
2022-12-27T21:34:18.233Z,6.30
2022-12-27T21:37:08.771Z,6.30
2022-12-27T21:39:59.557Z,6.20
2022-12-27T21:42:45.852Z,6.30
2022-12-27T21:45:32.440Z,6.20
2022-12-27T21:48:20.199Z,6.30
2022-12-27T21:51:08.594Z,6.30
2022-12-27T21:53:56.472Z,6.30
2022-12-27T21:56:42.818Z,6.40
2022-12-27T21:59:29.306Z,6.40
2022-12-27T22:02:15.774Z,6.30
2022-12-27T22:05:04.445Z,6.30
2022-12-27T22:07:51.047Z,6.40
2022-12-27T22:10:37.279Z,6.40
2022-12-27T22:13:24.018Z,6.40
2022-12-27T22:16:14.821Z,6.30
2022-12-27T22:19:01.637Z,6.40
2022-12-27T22:21:49.424Z,6.40
2022-12-27T22:24:35.839Z,6.40
2022-12-27T22:27:24.333Z,6.40
2022-12-27T22:30:11.637Z,6.40
2022-12-27T22:32:58.055Z,6.40
2022-12-27T22:35:44.494Z,6.40
2022-12-27T22:38:32.942Z,6.40
2022-12-27T22:41:20.994Z,6.40
2022-12-27T22:44:09.169Z,6.40
2022-12-27T22:47:25.050Z,6.40
2022-12-27T22:50:06.083Z,6.40
2022-12-27T22:52:52.377Z,6.30
2022-12-27T22:55:42.682Z,6.30
2022-12-27T22:58:31.771Z,6.30
2022-12-27T23:01:20.884Z,6.30
2022-12-27T23:04:09.265Z,6.20
2022-12-27T23:06:55.778Z,6.20
2022-12-27T23:09:43.633Z,6.20
2022-12-27T23:12:31.764Z,6.20
2022-12-27T23:15:18.222Z,6.20
2022-12-27T23:18:05.118Z,6.20
2022-12-27T23:21:21.114Z,6.10
2022-12-27T23:23:59.538Z,6.10
2022-12-27T23:26:45.859Z,6.20
2022-12-27T23:29:33.683Z,6.20
2022-12-27T23:32:20.026Z,6.20
2022-12-27T23:35:06.850Z,6.20
2022-12-27T23:37:53.584Z,6.20
2022-12-27T23:40:40.064Z,6.10
2022-12-27T23:43:51.694Z,6.20
2022-12-27T23:46:38.079Z,6.20
2022-12-27T23:49:24.233Z,6.10
2022-12-27T23:52:10.574Z,6.10
2022-12-27T23:54:58.233Z,6.20
2022-12-27T23:57:44.593Z,6.10
